ADDS METAR Data INFO
IDs: Format: Raw Decoded Include TAF

Data at: 0314 UTC 20 Jul 2018

K1M5 200255Z AUTO 15004KT 10SM CLR 25/19 A2993 RMK A01
K1M5 200235Z AUTO 15004KT 10SM 26/20 A2993 RMK A01
K1M5 200215Z AUTO 16004KT 10SM CLR 26/20 A2993 RMK A01
K1M5 200155Z AUTO 16004KT 10SM 26/21 A2992 RMK A01
K1M5 200135Z AUTO 00000KT 10SM CLR 26/21 A2992 RMK A01
K1M5 200115Z AUTO 00000KT 10SM CLR 26/21 A2991 RMK A01
K1M5 200055Z AUTO 00000KT 10SM CLR 28/20 A2991 RMK A01
K1M5 200035Z AUTO 12003KT 10SM CLR 29/19 A2990 RMK A01
K1M5 200015Z AUTO 00000KT 10SM FEW100 30/19 A2991 RMK A01
K1M5 192355Z AUTO 00000KT 10SM CLR 31/19 A2991 RMK A01
K1M5 192335Z AUTO 00000KT 10SM CLR 31/18 A2991 RMK A01
K1M5 192315Z AUTO 00000KT 10SM CLR 31/18 A2991 RMK A01
K1M5 192255Z AUTO 00000KT 10SM CLR 31/18 A2991 RMK A01
K1M5 192235Z AUTO 00000KT 10SM CLR 32/17 A2991 RMK A01
K1M5 192215Z AUTO 12004KT 10SM CLR 32/17 A2991 RMK A01
K1M5 192155Z AUTO 00000KT 10SM CLR 32/16 A2992 RMK A01
K1M5 192135Z AUTO 19003KT 10SM CLR 32/16 A2993 RMK A01
K1M5 192115Z AUTO 00000KT 10SM CLR 32/16 A2994 RMK A01
K1M5 192055Z AUTO 00000KT 7SM CLR 32/16 A2994 RMK A01
K1M5 192035Z AUTO VRB03KT 10SM CLR 31/17 A2994 RMK A01
K1M5 192015Z AUTO 25004KT 10SM CLR 32/18 A2994 RMK A01
K1M5 191955Z AUTO 00000KT 10SM CLR 31/18 A2995 RMK A01
K1M5 191935Z AUTO VRB04KT 10SM CLR 31/19 A2995 RMK A01
K1M5 191915Z AUTO 34003KT 5SM HZ CLR 31/19 A2996 RMK A01
K1M5 191855Z AUTO 00000KT 10SM CLR 31/18 A2997 RMK A01
K1M5 191835Z AUTO 00000KT 10SM CLR 30/17 A2997 RMK A01
K1M5 191815Z AUTO 21006KT 10SM CLR 31/17 A2997 RMK A01
K1M5 191755Z AUTO VRB05KT 10SM CLR 31/19 A2997 RMK A01
K1M5 191735Z AUTO VRB05KT 10SM CLR 30/19 A2998 RMK A01
K1M5 191715Z AUTO 21007KT 10SM CLR 30/18 A2998 RMK A01
K1M5 191655Z AUTO VRB06KT 10SM CLR 30/18 A2998 RMK A01
K1M5 191635Z AUTO 20007KT 10SM CLR 30/19 A2998 RMK A01
K1M5 191615Z AUTO VRB05KT 10SM CLR 29/19 A2999 RMK A01
K1M5 191555Z AUTO VRB06KT 10SM CLR 29/19 A2999 RMK A01
K1M5 191535Z AUTO 17006KT 10SM CLR 29/18 A3000 RMK A01
K1M5 191515Z AUTO 16006KT 10SM CLR 28/19 A2999 RMK A01
K1M5 191455Z AUTO VRB04KT 10SM CLR 27/19 A3000 RMK A01
K1M5 191435Z AUTO VRB06KT 9SM CLR 27/19 A2999 RMK A01
K1M5 191415Z AUTO 17007KT 10SM CLR 27/18 A3000 RMK A01
K1M5 191355Z AUTO 16007KT 10SM CLR 27/18 A3000 RMK A01
K1M5 191335Z AUTO 14005KT 10SM CLR 26/20 A3000 RMK A01
K1M5 191315Z AUTO 13006KT 10SM CLR 25/19 A2999 RMK A01
K1M5 191255Z AUTO 13005KT 10SM CLR 24/19 A3000 RMK A01
K1M5 191235Z AUTO 00000KT 10SM CLR 23/19 A3000 RMK A01
K1M5 191215Z AUTO 00000KT 10SM CLR 22/19 A3000 RMK A01
K1M5 191155Z AUTO 00000KT 10SM CLR 21/19 A2999 RMK A01
K1M5 191135Z AUTO 00000KT 10SM CLR 19/18 A2999 RMK A01
K1M5 191115Z AUTO 00000KT 10SM CLR 18/18 A2999 RMK A01
K1M5 191055Z AUTO 00000KT 10SM CLR 18/18 A2999 RMK A01
K1M5 191035Z AUTO 00000KT 10SM CLR 18/18 A2998 RMK A01
K1M5 191015Z AUTO 00000KT 10SM CLR 18/18 A2998 RMK A01
K1M5 190955Z AUTO 00000KT 10SM CLR 18/18 A2997 RMK A01
K1M5 190935Z AUTO 00000KT 10SM CLR 18/18 A2997 RMK A01
K1M5 190915Z AUTO 00000KT 10SM CLR 18/18 A2997 RMK A01
K1M5 190855Z AUTO 00000KT 10SM CLR 19/18 A2997 RMK A01
K1M5 190835Z AUTO 00000KT 10SM CLR 19/18 A2997 RMK A01
K1M5 190815Z AUTO 00000KT 10SM CLR 19/18 A2997 RMK A01
K1M5 190755Z AUTO 00000KT 10SM CLR 19/18 A2997 RMK A01
K1M5 190735Z AUTO 00000KT 10SM CLR 19/18 A2997 RMK A01
K1M5 190715Z AUTO 00000KT 10SM CLR 19/18 A2997 RMK A01
K1M5 190655Z AUTO 00000KT 10SM CLR 19/18 A2998 RMK A01
K1M5 190635Z AUTO 00000KT 10SM CLR 20/18 A2998 RMK A01
K1M5 190615Z AUTO 00000KT 10SM CLR 20/18 A2999 RMK A01
K1M5 190555Z AUTO 00000KT 10SM CLR 20/18 A2999 RMK A01
K1M5 190535Z AUTO 00000KT 10SM CLR 21/18 A3000 RMK A01
K1M5 190515Z AUTO 00000KT 10SM CLR 22/18 A3000 RMK A01
K1M5 190455Z AUTO 00000KT 10SM 22/18 A3000 RMK A01
K1M5 190435Z AUTO 00000KT 10SM 22/18 A3000 RMK A01
K1M5 190415Z AUTO 00000KT 10SM CLR 21/19 A3000 RMK A01
K1M5 190355Z AUTO 00000KT 10SM 22/19 A3000 RMK A01
K1M5 190335Z AUTO 00000KT 10SM CLR 23/18 A3000 RMK A01
K1M5 190315Z AUTO 00000KT 10SM CLR 23/18 A3000 RMK A01
K1M5 190255Z AUTO 00000KT 10SM 23/18 A3000 RMK A01
K1M5 190235Z AUTO 00000KT 10SM CLR 24/18 A3000 RMK A01
K1M5 190215Z AUTO 00000KT 10SM CLR 23/19 A2999 RMK A01
K1M5 190155Z AUTO 34003KT 10SM CLR 23/19 A2998 RMK A01
K1M5 190135Z AUTO 36004KT 10SM CLR 24/20 A2997 RMK A01
K1M5 190115Z AUTO 35004KT 10SM CLR 25/20 A2997 RMK A01
K1M5 190055Z AUTO 00000KT 10SM CLR 25/20 A2996 RMK A01
K1M5 190035Z AUTO 33003KT 10SM CLR 26/21 A2997 RMK A01
K1M5 190015Z AUTO 04004KT 10SM CLR 27/19 A2996 RMK A01
K1M5 182355Z AUTO 00000KT 10SM CLR 28/19 A2997 RMK A01
K1M5 182335Z AUTO 03004KT 10SM CLR 28/19 A2997 RMK A01
K1M5 182315Z AUTO 04004KT 10SM CLR 29/19 A2997 RMK A01
K1M5 182255Z AUTO 04005KT 10SM CLR 29/18 A2997 RMK A01
K1M5 182235Z AUTO 05005KT 10SM CLR 29/18 A2998 RMK A01
K1M5 182215Z AUTO 06006KT 10SM CLR 30/18 A2998 RMK A01
K1M5 182155Z AUTO 04005G10KT 10SM CLR 30/18 A2998 RMK A01
K1M5 182135Z AUTO 36006KT 10SM CLR 29/18 A2998 RMK A01
K1M5 182115Z AUTO 02005G11KT 10SM CLR 30/18 A2998 RMK A01
K1M5 182055Z AUTO 04003KT 10SM CLR 30/18 A2998 RMK A01
K1M5 182035Z AUTO 01006G11KT 10SM CLR 30/18 A2999 RMK A01
K1M5 182015Z AUTO 03005G10KT 10SM CLR 30/17 A3000 RMK A01
K1M5 181955Z AUTO 03007KT 10SM CLR 30/19 A3001 RMK A01
K1M5 181935Z AUTO 36007KT 10SM CLR 30/19 A3002 RMK A01
K1M5 181915Z AUTO VRB05KT 9SM CLR 30/19 A3002 RMK A01
K1M5 181855Z AUTO 36004KT 10SM CLR 30/18 A3003 RMK A01
K1M5 181835Z AUTO 03005KT 10SM CLR 30/18 A3003 RMK A01
K1M5 181815Z AUTO 35008KT 10SM CLR 29/18 A3003 RMK A01
K1M5 181755Z AUTO 02007KT 10SM CLR 29/18 A3003 RMK A01
K1M5 181735Z AUTO 03004KT 10SM CLR 29/16 A3003 RMK A01
K1M5 181715Z AUTO 00000KT 10SM CLR 30/16 A3004 RMK A01
K1M5 181655Z AUTO VRB03KT 10SM CLR 29/17 A3004 RMK A01
K1M5 181635Z AUTO 11004KT 10SM CLR 29/17 A3005 RMK A01
K1M5 181615Z AUTO 00000KT 10SM CLR 29/17 A3005 RMK A01
K1M5 181555Z AUTO VRB05KT 10SM CLR 28/18 A3005 RMK A01
K1M5 181535Z AUTO VRB04KT 10SM CLR 28/19 A3005 RMK A01
K1M5 181515Z AUTO 05006KT 10SM CLR 28/19 A3005 RMK A01